LFSI 250030Z AUTO 00000KT CAVOK 05/02 Q1010

ElémentsDécodage
LFSI Station météo située sur l'aérodrome de SAINT-DIZIER Robinson
250030Z émis le 25 du mois à 00h30 UTC
AUTO Bulletin édité par un automate
00000KT vent nul
CAVOK Ceiling And Visibility OK
- Visibilité de 10 Km ou plus
- Pas de nuage au-dessous de 1500m ou au-dessous de l'altitude minimale du secteur la plus élevée (si>1500m) et absence de CB
- pas de temps présent significatif
05/02 température 05°C, point de rosée 02°C
 soit une humidité relative de 81%
Q1010 la pression au niveau de la mer (QNH) est de 1010 hPa